createdAt,value
2018-10-01T00:01:31.993Z,103.67
2018-10-01T00:04:04.926Z,110.77
2018-10-01T00:06:37.246Z,127.43
2018-10-01T00:09:10.050Z,95.67
2018-10-01T00:11:41.061Z,97.53
2018-10-01T00:14:12.269Z,103.73
2018-10-01T00:16:43.337Z,109.67
2018-10-01T00:19:19.345Z,106.80
2018-10-01T00:21:54.971Z,110.23
2018-10-01T00:24:26.115Z,126.17
2018-10-01T00:26:57.978Z,93.93
2018-10-01T00:29:29.445Z,117.17
2018-10-01T00:32:00.880Z,108.53
2018-10-01T00:34:33.151Z,86.90
2018-10-01T00:37:05.126Z,102.20
2018-10-01T00:39:36.885Z,94.73
2018-10-01T00:42:08.183Z,99.63
2018-10-01T00:44:39.659Z,102.53
2018-10-01T00:47:11.641Z,110.10
2018-10-01T00:49:43.305Z,102.00
2018-10-01T00:52:14.750Z,125.60
2018-10-01T00:54:46.350Z,121.40
2018-10-01T00:57:17.719Z,95.80
2018-10-01T00:59:49.051Z,126.83
2018-10-01T01:02:21.078Z,108.07
2018-10-01T01:04:52.471Z,122.27
2018-10-01T01:07:23.735Z,101.63
2018-10-01T01:09:55.453Z,99.40
2018-10-01T01:12:26.963Z,96.37
2018-10-01T01:14:58.787Z,116.37
2018-10-01T01:17:30.500Z,98.47
2018-10-01T01:20:02.903Z,107.27
2018-10-01T01:22:34.244Z,104.03
2018-10-01T01:25:06.291Z,135.47
2018-10-01T01:27:37.893Z,118.93
2018-10-01T01:30:09.852Z,109.00
2018-10-01T01:32:41.539Z,122.87
2018-10-01T01:35:13.027Z,123.47
2018-10-01T01:37:44.135Z,121.27
2018-10-01T01:40:15.843Z,138.87
2018-10-01T01:42:47.130Z,120.23
2018-10-01T01:45:18.730Z,105.10
2018-10-01T01:47:50.179Z,99.80
2018-10-01T01:50:21.747Z,106.40
2018-10-01T01:52:53.158Z,113.43
2018-10-01T01:55:24.615Z,140.73
2018-10-01T01:57:56.005Z,128.50
2018-10-01T02:00:27.636Z,114.80
2018-10-01T02:02:59.100Z,117.70
2018-10-01T02:05:30.737Z,113.53
2018-10-01T02:08:02.513Z,127.87
2018-10-01T02:10:34.151Z,122.07
2018-10-01T02:13:05.466Z,116.57
2018-10-01T02:15:36.935Z,122.37
2018-10-01T02:18:08.335Z,132.37
2018-10-01T02:20:40.081Z,124.00
2018-10-01T02:23:11.230Z,127.03
2018-10-01T02:25:43.131Z,134.10
2018-10-01T02:28:14.379Z,112.73
2018-10-01T02:30:46.319Z,135.70
2018-10-01T02:33:17.755Z,129.00
2018-10-01T02:35:49.335Z,168.60
2018-10-01T02:38:21.071Z,152.37
2018-10-01T02:40:52.616Z,134.97
2018-10-01T02:43:24.183Z,134.87
2018-10-01T02:45:56.201Z,123.00
2018-10-01T02:48:27.447Z,136.40
2018-10-01T02:51:00.419Z,138.27
2018-10-01T02:53:36.627Z,104.57
2018-10-01T02:56:08.831Z,141.23
2018-10-01T02:58:41.529Z,123.33
2018-10-01T03:01:13.085Z,127.03
2018-10-01T03:03:45.727Z,144.43
2018-10-01T03:06:17.555Z,129.17
2018-10-01T03:08:48.690Z,144.53
2018-10-01T03:11:20.254Z,112.27
2018-10-01T03:13:51.243Z,129.03
2018-10-01T03:16:22.949Z,140.57
2018-10-01T03:18:54.420Z,125.67
2018-10-01T03:21:25.991Z,113.20
2018-10-01T03:23:57.426Z,123.00
2018-10-01T03:26:29.150Z,90.73
2018-10-01T03:29:00.476Z,92.40
2018-10-01T03:31:32.186Z,87.57
2018-10-01T03:34:03.767Z,95.33
2018-10-01T03:36:35.520Z,101.07
2018-10-01T03:39:08.697Z,107.53
2018-10-01T03:41:40.803Z,80.33
2018-10-01T03:44:12.144Z,100.07
2018-10-01T03:46:43.871Z,119.97
2018-10-01T03:49:15.241Z,92.10
2018-10-01T03:51:46.735Z,99.80
2018-10-01T03:54:18.130Z,98.03
2018-10-01T03:56:49.918Z,101.87
2018-10-01T03:59:21.122Z,88.80
2018-10-01T04:01:53.503Z,89.97
2018-10-01T04:04:26.282Z,97.50
2018-10-01T04:06:57.806Z,93.80
2018-10-01T04:09:29.070Z,92.00
2018-10-01T04:12:00.561Z,85.60
2018-10-01T04:14:31.934Z,104.33
2018-10-01T04:17:03.983Z,97.07
2018-10-01T04:19:35.434Z,104.60
2018-10-01T04:22:07.246Z,111.20
2018-10-01T04:24:38.467Z,88.23
2018-10-01T04:27:09.924Z,97.37
2018-10-01T04:29:41.326Z,92.43
2018-10-01T04:32:12.667Z,88.17
2018-10-01T04:34:43.943Z,113.00
2018-10-01T04:37:15.695Z,100.73
2018-10-01T04:39:47.068Z,98.93
2018-10-01T04:42:18.818Z,96.73
2018-10-01T04:44:50.075Z,96.30
2018-10-01T04:47:21.696Z,105.07
2018-10-01T04:49:53.183Z,109.60
2018-10-01T04:52:25.101Z,97.50
2018-10-01T04:54:56.477Z,128.60
2018-10-01T04:57:28.071Z,116.37
2018-10-01T04:59:59.366Z,118.00
2018-10-01T05:02:31.091Z,126.57
2018-10-01T05:05:04.694Z,148.50
2018-10-01T05:07:36.514Z,118.27
2018-10-01T05:10:08.962Z,153.47
2018-10-01T05:12:40.911Z,115.10
2018-10-01T05:15:12.414Z,100.77
2018-10-01T05:17:44.116Z,114.43
2018-10-01T05:20:15.086Z,107.20
2018-10-01T05:22:46.379Z,120.13
2018-10-01T05:25:17.472Z,112.37
2018-10-01T05:27:49.219Z,97.63
2018-10-01T05:30:20.583Z,99.33
2018-10-01T05:32:52.144Z,103.80
2018-10-01T05:35:23.496Z,102.47
2018-10-01T05:37:55.405Z,92.57
2018-10-01T05:40:26.787Z,100.63
2018-10-01T05:42:58.063Z,93.97
2018-10-01T05:45:29.095Z,103.07
2018-10-01T05:48:00.859Z,84.30
2018-10-01T05:50:31.943Z,98.70
2018-10-01T05:53:03.283Z,80.13
2018-10-01T05:55:34.218Z,70.60
2018-10-01T05:58:05.556Z,81.72
2018-10-01T06:00:36.797Z,69.73
2018-10-01T06:03:08.327Z,76.77
2018-10-01T06:05:40.238Z,83.00
2018-10-01T06:08:11.627Z,87.10
2018-10-01T06:10:42.603Z,84.83
2018-10-01T06:13:13.741Z,83.10
2018-10-01T06:15:45.091Z,92.27
2018-10-01T06:18:17.111Z,78.47
2018-10-01T06:20:48.503Z,89.87
2018-10-01T06:23:19.935Z,104.00
2018-10-01T06:25:51.024Z,76.40
2018-10-01T06:28:22.426Z,93.97
2018-10-01T06:30:53.392Z,99.13
2018-10-01T06:33:24.630Z,95.73
2018-10-01T06:35:55.679Z,77.20
2018-10-01T06:38:26.933Z,88.07
2018-10-01T06:40:57.938Z,81.30
2018-10-01T06:43:29.139Z,89.67
2018-10-01T06:46:00.047Z,85.63
2018-10-01T06:48:31.498Z,81.20
2018-10-01T06:51:02.490Z,72.77
2018-10-01T06:53:34.178Z,68.93
2018-10-01T06:56:05.187Z,62.80
2018-10-01T06:58:36.305Z,75.90
2018-10-01T07:01:07.576Z,90.00
2018-10-01T07:03:38.779Z,54.97
2018-10-01T07:06:10.539Z,66.03
2018-10-01T07:08:41.874Z,78.87
2018-10-01T07:11:14.581Z,58.20
2018-10-01T07:13:45.571Z,75.43
2018-10-01T07:16:16.674Z,79.67
2018-10-01T07:18:48.482Z,98.83
2018-10-01T07:21:19.383Z,77.43
2018-10-01T07:23:50.979Z,71.97
2018-10-01T07:26:22.049Z,77.67
2018-10-01T07:28:53.295Z,81.37
2018-10-01T07:31:24.364Z,75.90
2018-10-01T07:33:55.703Z,67.60
2018-10-01T07:36:26.719Z,58.83
2018-10-01T07:38:58.130Z,77.50
2018-10-01T07:41:29.972Z,55.80
2018-10-01T07:44:02.403Z,56.37
2018-10-01T07:46:34.103Z,65.63
2018-10-01T07:49:05.765Z,63.53
2018-10-01T07:51:37.226Z,52.50
2018-10-01T07:54:09.014Z,59.70
2018-10-01T07:56:40.406Z,56.07
2018-10-01T07:59:12.290Z,52.50
2018-10-01T08:01:43.387Z,54.83
2018-10-01T08:04:15.011Z,44.80
2018-10-01T08:06:48.215Z,54.17
2018-10-01T08:09:20.016Z,49.73
2018-10-01T08:11:51.410Z,44.73
2018-10-01T08:14:23.283Z,52.40
2018-10-01T08:16:54.523Z,44.93
2018-10-01T08:19:26.234Z,57.93
2018-10-01T08:21:57.807Z,47.07
2018-10-01T08:24:29.399Z,56.53
2018-10-01T08:27:00.650Z,57.03
2018-10-01T08:29:32.282Z,53.43
2018-10-01T08:32:04.455Z,64.43
2018-10-01T08:34:36.671Z,51.77
2018-10-01T08:37:07.880Z,47.17
2018-10-01T08:39:39.694Z,63.97
2018-10-01T08:42:10.828Z,42.53
2018-10-01T08:44:42.508Z,52.77
2018-10-01T08:47:13.611Z,44.03
2018-10-01T08:49:52.901Z,54.23
2018-10-01T08:52:30.174Z,46.90
2018-10-01T08:55:02.656Z,57.47
2018-10-01T08:57:33.710Z,52.73
2018-10-01T09:00:05.489Z,58.53
2018-10-01T09:02:36.630Z,47.30
2018-10-01T09:05:08.285Z,53.63
2018-10-01T09:07:41.697Z,56.13
2018-10-01T09:10:15.790Z,50.80
2018-10-01T09:12:46.796Z,50.20
2018-10-01T09:15:19.079Z,57.43
2018-10-01T09:17:50.179Z,62.83
2018-10-01T09:20:21.461Z,48.00
2018-10-01T09:22:53.651Z,46.37
2018-10-01T09:25:24.895Z,56.43
2018-10-01T09:27:55.988Z,59.87
2018-10-01T09:30:27.414Z,51.27
2018-10-01T09:32:58.587Z,55.53
2018-10-01T09:35:30.090Z,55.67
2018-10-01T09:38:01.252Z,51.70
2018-10-01T09:40:32.517Z,47.47
2018-10-01T09:43:04.428Z,52.83
2018-10-01T09:45:35.707Z,59.93
2018-10-01T09:48:09.239Z,63.70
2018-10-01T09:50:40.674Z,51.40
2018-10-01T09:53:11.903Z,59.53
2018-10-01T09:55:43.276Z,54.60
2018-10-01T09:58:15.086Z,53.70
2018-10-01T10:00:51.014Z,52.13
2018-10-01T10:03:23.035Z,47.73
2018-10-01T10:05:54.253Z,48.00
2018-10-01T10:08:27.043Z,52.63
2018-10-01T10:10:58.482Z,58.43
2018-10-01T10:13:29.743Z,54.13
2018-10-01T10:16:01.033Z,56.23
2018-10-01T10:18:32.061Z,47.67
2018-10-01T10:21:04.256Z,55.33
2018-10-01T10:23:35.870Z,52.50
2018-10-01T10:26:07.439Z,52.20
2018-10-01T10:28:38.747Z,54.60
2018-10-01T10:31:10.186Z,55.57
2018-10-01T10:33:41.250Z,55.93
2018-10-01T10:36:13.046Z,53.60
2018-10-01T10:38:43.980Z,57.53
2018-10-01T10:41:15.842Z,53.10
2018-10-01T10:43:46.923Z,56.47
2018-10-01T10:46:17.877Z,63.37
2018-10-01T10:48:48.866Z,52.73
2018-10-01T10:51:20.277Z,53.33
2018-10-01T10:53:52.069Z,51.63
2018-10-01T10:56:23.351Z,52.93
2018-10-01T10:58:54.451Z,63.13
2018-10-01T11:01:26.414Z,44.07
2018-10-01T11:03:57.580Z,37.77
2018-10-01T11:06:29.038Z,54.10
2018-10-01T11:09:02.005Z,55.90
2018-10-01T11:11:33.483Z,46.77
2018-10-01T11:14:05.348Z,54.87
2018-10-01T11:16:36.751Z,53.13
2018-10-01T11:19:07.845Z,52.63
2018-10-01T11:21:39.668Z,52.87
2018-10-01T11:24:10.695Z,50.53
2018-10-01T11:26:42.011Z,59.80
2018-10-01T11:29:13.249Z,62.20
2018-10-01T11:31:45.060Z,63.33
2018-10-01T11:34:16.114Z,51.43
2018-10-01T11:36:47.287Z,54.20
2018-10-01T11:39:18.705Z,59.53
2018-10-01T11:41:50.246Z,62.90
2018-10-01T11:44:21.387Z,50.63
2018-10-01T11:46:52.947Z,58.20
2018-10-01T11:49:24.357Z,50.03
2018-10-01T11:51:56.078Z,48.37
2018-10-01T11:54:28.512Z,62.33
2018-10-01T11:57:00.069Z,50.43
2018-10-01T11:59:31.991Z,45.93
2018-10-01T12:02:06.239Z,50.47
2018-10-01T12:04:37.383Z,48.60
2018-10-01T12:07:09.351Z,55.47
2018-10-01T12:09:40.976Z,53.13
2018-10-01T12:12:14.016Z,44.60
2018-10-01T12:14:45.014Z,42.57
2018-10-01T12:17:16.775Z,56.93
2018-10-01T12:19:48.486Z,61.27
2018-10-01T12:22:20.480Z,48.67
2018-10-01T12:24:51.503Z,43.87
2018-10-01T12:27:23.584Z,47.87
2018-10-01T12:29:54.836Z,50.23
2018-10-01T12:32:26.682Z,49.37
2018-10-01T12:34:57.700Z,51.13
2018-10-01T12:37:29.512Z,43.10
2018-10-01T12:40:06.382Z,48.03
2018-10-01T12:42:40.732Z,51.30
2018-10-01T12:45:11.784Z,48.60
2018-10-01T12:47:42.897Z,47.27
2018-10-01T12:50:13.761Z,44.87
2018-10-01T12:52:45.050Z,47.63
2018-10-01T12:55:19.744Z,47.33
2018-10-01T12:57:51.055Z,44.73
2018-10-01T13:00:21.979Z,47.80
2018-10-01T13:02:53.195Z,45.50
2018-10-01T13:05:24.226Z,45.43
2018-10-01T13:07:56.259Z,46.17
2018-10-01T13:10:29.625Z,47.83
2018-10-01T13:13:01.031Z,44.73
2018-10-01T13:15:32.012Z,45.20
2018-10-01T13:18:03.227Z,46.53
2018-10-01T13:20:34.331Z,55.43
2018-10-01T13:23:05.634Z,45.87
2018-10-01T13:25:36.723Z,51.10
2018-10-01T13:28:15.866Z,46.70
2018-10-01T13:30:47.071Z,47.20
2018-10-01T13:33:18.598Z,47.00
2018-10-01T13:35:49.812Z,45.60
2018-10-01T13:38:21.252Z,48.53
2018-10-01T13:40:52.318Z,48.13
2018-10-01T13:43:23.542Z,52.10
2018-10-01T13:45:54.829Z,51.83
2018-10-01T13:48:26.375Z,51.13
2018-10-01T13:50:57.356Z,50.90
2018-10-01T13:53:28.763Z,52.10
2018-10-01T13:55:59.955Z,54.87
2018-10-01T13:58:31.395Z,49.50
2018-10-01T14:01:04.501Z,51.87
2018-10-01T14:03:36.038Z,52.90
2018-10-01T14:06:08.845Z,54.70
2018-10-01T14:08:40.262Z,52.83
2018-10-01T14:11:20.193Z,52.83
2018-10-01T14:13:51.881Z,51.93
2018-10-01T14:16:22.974Z,55.73
2018-10-01T14:18:54.455Z,53.30
2018-10-01T14:21:26.328Z,53.80
2018-10-01T14:23:57.715Z,50.17
2018-10-01T14:26:28.866Z,52.53
2018-10-01T14:29:00.190Z,56.27
2018-10-01T14:31:31.063Z,60.77
2018-10-01T14:34:04.958Z,53.57
2018-10-01T14:36:36.006Z,50.63
2018-10-01T14:39:09.983Z,47.10
2018-10-01T14:41:40.972Z,51.83
2018-10-01T14:44:15.232Z,45.70
2018-10-01T14:46:47.298Z,46.97
2018-10-01T14:49:18.363Z,52.50
2018-10-01T14:51:49.431Z,45.70
2018-10-01T14:54:21.887Z,45.83
2018-10-01T14:56:56.886Z,45.83
2018-10-01T14:59:28.258Z,46.90
2018-10-01T15:01:59.340Z,47.10
2018-10-01T15:04:33.160Z,48.17
2018-10-01T15:07:04.279Z,52.90
2018-10-01T15:09:35.672Z,53.27
2018-10-01T15:12:07.596Z,51.23
2018-10-01T15:14:39.034Z,46.83
2018-10-01T15:17:10.091Z,49.67
2018-10-01T15:19:42.543Z,47.30
2018-10-01T15:22:13.913Z,46.50
2018-10-01T15:24:45.594Z,47.50
2018-10-01T15:27:17.535Z,46.00
2018-10-01T15:29:48.988Z,46.33
2018-10-01T15:32:24.656Z,47.33
2018-10-01T15:34:55.786Z,46.00
2018-10-01T15:37:27.827Z,47.40
2018-10-01T15:39:59.483Z,48.67
2018-10-01T15:42:30.381Z,48.37
2018-10-01T15:45:01.762Z,49.97
2018-10-01T15:47:32.706Z,49.23
2018-10-01T15:50:04.087Z,50.97
2018-10-01T15:52:35.699Z,47.73
2018-10-01T15:55:07.830Z,51.57
2018-10-01T15:57:38.871Z,49.40
2018-10-01T16:00:10.460Z,45.33
2018-10-01T16:02:41.603Z,48.40
2018-10-01T16:05:12.596Z,53.60
2018-10-01T16:07:43.567Z,53.37
2018-10-01T16:10:15.742Z,52.60
2018-10-01T16:12:47.657Z,54.40
2018-10-01T16:15:18.918Z,52.73
2018-10-01T16:17:49.972Z,54.33
2018-10-01T16:20:22.311Z,55.10
2018-10-01T16:22:53.528Z,52.60
2018-10-01T16:25:25.412Z,54.30
2018-10-01T16:27:56.398Z,57.60
2018-10-01T16:30:27.614Z,53.17
2018-10-01T16:32:58.651Z,52.70
2018-10-01T16:35:30.012Z,53.40
2018-10-01T16:38:01.046Z,52.60
2018-10-01T16:40:39.071Z,52.73
2018-10-01T16:43:10.085Z,54.90
2018-10-01T16:45:42.217Z,53.77
2018-10-01T16:48:14.176Z,51.67
2018-10-01T16:50:45.866Z,53.40
2018-10-01T16:53:18.561Z,51.10
2018-10-01T16:55:55.795Z,53.23
2018-10-01T16:58:26.739Z,51.63
2018-10-01T17:00:59.558Z,52.93
2018-10-01T17:03:31.610Z,53.67
2018-10-01T17:06:03.511Z,52.03
2018-10-01T17:08:34.554Z,53.63
2018-10-01T17:11:06.791Z,56.50
2018-10-01T17:13:41.001Z,53.60
2018-10-01T17:16:14.635Z,57.00
2018-10-01T17:18:46.135Z,55.53
2018-10-01T17:21:17.829Z,53.43
2018-10-01T17:23:49.166Z,57.27
2018-10-01T17:26:20.772Z,55.17
2018-10-01T17:28:52.267Z,52.60
2018-10-01T17:31:24.384Z,58.03
2018-10-01T17:33:55.759Z,58.60
2018-10-01T17:36:27.422Z,60.93
2018-10-01T17:38:58.896Z,64.37
2018-10-01T17:41:38.989Z,63.27
2018-10-01T17:44:16.351Z,64.23
2018-10-01T17:46:50.089Z,65.77
2018-10-01T17:49:23.932Z,69.00
2018-10-01T17:52:00.415Z,67.00
2018-10-01T17:54:34.094Z,69.17
2018-10-01T17:57:06.605Z,70.93
2018-10-01T17:59:42.839Z,72.13
2018-10-01T18:02:14.873Z,70.70
2018-10-01T18:04:46.300Z,70.90
2018-10-01T18:07:31.865Z,74.17
2018-10-01T18:10:03.697Z,70.93
2018-10-01T18:12:35.113Z,72.83
2018-10-01T18:15:08.187Z,75.60
2018-10-01T18:17:39.871Z,74.33
2018-10-01T18:20:11.340Z,72.70
2018-10-01T18:22:42.866Z,73.27
2018-10-01T18:25:14.075Z,71.70
2018-10-01T18:27:45.932Z,72.63
2018-10-01T18:30:17.699Z,67.53
2018-10-01T18:32:49.854Z,71.43
2018-10-01T18:35:21.197Z,69.17
2018-10-01T18:37:53.057Z,69.93
2018-10-01T18:40:24.734Z,70.00
2018-10-01T18:42:56.477Z,70.90
2018-10-01T18:45:27.951Z,69.23
2018-10-01T18:47:59.711Z,67.63
2018-10-01T18:50:32.344Z,68.57
2018-10-01T18:53:04.410Z,68.50
2018-10-01T18:55:35.722Z,68.07
2018-10-01T18:58:07.993Z,66.90
2018-10-01T19:00:38.934Z,67.93
2018-10-01T19:03:10.249Z,66.47
2018-10-01T19:05:41.751Z,67.80
2018-10-01T19:08:13.777Z,68.23
2018-10-01T19:10:45.427Z,66.97
2018-10-01T19:13:17.020Z,65.03
2018-10-01T19:15:49.298Z,66.10
2018-10-01T19:18:20.552Z,65.27
2018-10-01T19:20:51.620Z,64.07
2018-10-01T19:23:23.229Z,64.00
2018-10-01T19:25:54.383Z,63.83
2018-10-01T19:28:25.707Z,61.37
2018-10-01T19:30:56.646Z,60.53
2018-10-01T19:33:27.928Z,60.77
2018-10-01T19:35:59.171Z,61.13
2018-10-01T19:38:30.264Z,61.33
2018-10-01T19:41:01.211Z,60.10
2018-10-01T19:43:32.804Z,61.27
2018-10-01T19:46:05.825Z,62.77
2018-10-01T19:48:37.066Z,62.73
2018-10-01T19:51:08.448Z,62.63
2018-10-01T19:53:40.364Z,60.47
2018-10-01T19:56:11.553Z,63.47
2018-10-01T19:58:43.492Z,59.20
2018-10-01T20:01:14.864Z,59.53
2018-10-01T20:03:45.992Z,60.43
2018-10-01T20:06:17.566Z,63.07
2018-10-01T20:08:49.130Z,59.33
2018-10-01T20:11:20.536Z,57.40
2018-10-01T20:13:52.176Z,59.00
2018-10-01T20:16:25.756Z,63.97
2018-10-01T20:18:57.601Z,64.70
2018-10-01T20:21:29.063Z,67.50
2018-10-01T20:24:00.741Z,68.77
2018-10-01T20:26:32.192Z,67.97
2018-10-01T20:29:04.105Z,65.30
2018-10-01T20:31:35.471Z,68.03
2018-10-01T20:34:07.524Z,67.60
2018-10-01T20:36:39.202Z,70.90
2018-10-01T20:39:11.585Z,69.27
2018-10-01T20:41:43.131Z,69.70
2018-10-01T20:44:14.897Z,70.67
2018-10-01T20:46:46.556Z,66.00
2018-10-01T20:49:18.741Z,69.87
2018-10-01T20:51:50.070Z,68.57
2018-10-01T20:54:21.620Z,71.43
2018-10-01T20:56:52.937Z,79.97
2018-10-01T20:59:24.800Z,71.83
2018-10-01T21:01:56.237Z,69.57
2018-10-01T21:04:28.381Z,72.00
2018-10-01T21:06:59.495Z,73.07
2018-10-01T21:09:31.248Z,68.80
2018-10-01T21:12:04.324Z,66.03
2018-10-01T21:14:36.097Z,70.17
2018-10-01T21:17:09.092Z,69.13
2018-10-01T21:19:41.277Z,67.67
2018-10-01T21:22:12.653Z,67.57
2018-10-01T21:24:44.090Z,68.47
2018-10-01T21:27:15.021Z,69.57
2018-10-01T21:29:46.178Z,65.83
2018-10-01T21:32:17.152Z,68.03
2018-10-01T21:34:48.724Z,72.50
2018-10-01T21:37:19.893Z,71.77
2018-10-01T21:40:11.201Z,72.83
2018-10-01T21:42:42.137Z,76.50
2018-10-01T21:45:14.797Z,71.90
2018-10-01T21:47:45.797Z,69.97
2018-10-01T21:50:17.216Z,74.50
2018-10-01T21:52:48.172Z,74.37
2018-10-01T21:55:19.393Z,75.43
2018-10-01T21:57:50.480Z,74.53
2018-10-01T22:00:21.848Z,71.37
2018-10-01T22:02:53.203Z,82.70
2018-10-01T22:05:24.468Z,76.80
2018-10-01T22:07:55.806Z,76.13
2018-10-01T22:10:27.313Z,80.13
2018-10-01T22:12:58.558Z,80.37
2018-10-01T22:15:35.219Z,79.93
2018-10-01T22:18:08.007Z,85.63
2018-10-01T22:20:39.765Z,82.47
2018-10-01T22:23:11.359Z,80.17
2018-10-01T22:25:42.904Z,81.03
2018-10-01T22:28:14.163Z,83.80
2018-10-01T22:30:46.007Z,85.77
2018-10-01T22:33:17.283Z,84.50
2018-10-01T22:35:49.012Z,82.97
2018-10-01T22:38:20.418Z,84.53
2018-10-01T22:40:52.408Z,84.77
2018-10-01T22:43:23.767Z,85.20
2018-10-01T22:45:55.755Z,86.33
2018-10-01T22:48:26.767Z,84.33
2018-10-01T22:50:58.260Z,87.43
2018-10-01T22:53:29.267Z,86.67
2018-10-01T22:56:00.558Z,82.70
2018-10-01T22:58:31.531Z,82.47
2018-10-01T23:01:02.879Z,84.93
2018-10-01T23:03:33.899Z,84.23
2018-10-01T23:06:05.912Z,79.83
2018-10-01T23:08:36.861Z,86.03
2018-10-01T23:11:08.172Z,85.03
2018-10-01T23:13:39.191Z,81.83
2018-10-01T23:16:10.531Z,82.63
2018-10-01T23:18:43.427Z,83.73
2018-10-01T23:21:15.117Z,81.07
2018-10-01T23:23:46.332Z,85.13
2018-10-01T23:26:18.019Z,85.60
2018-10-01T23:28:49.652Z,85.37
2018-10-01T23:31:21.097Z,84.70
2018-10-01T23:33:52.461Z,88.73
2018-10-01T23:36:23.896Z,85.00
2018-10-01T23:38:55.256Z,88.03
2018-10-01T23:41:26.600Z,87.53
2018-10-01T23:43:57.840Z,87.10
2018-10-01T23:46:29.275Z,87.87
2018-10-01T23:49:00.267Z,85.77
2018-10-01T23:51:31.456Z,89.37
2018-10-01T23:54:02.478Z,89.63
2018-10-01T23:56:33.898Z,90.27
2018-10-01T23:59:05.135Z,89.63
